sensor_id;sensor_type;location;lat;lon;timestamp;P1;durP1;ratioP1;P2;durP2;ratioP2
80179;SDS011;69505;52.134;5.438;2024-02-15T00:02:22;14.73;;;5.15;;
80179;SDS011;69505;52.134;5.438;2024-02-15T00:04:49;12.63;;;5.45;;
80179;SDS011;69505;52.134;5.438;2024-02-15T00:07:16;10.27;;;5.20;;
80179;SDS011;69505;52.134;5.438;2024-02-15T00:09:43;8.20;;;4.53;;
80179;SDS011;69505;52.134;5.438;2024-02-15T00:12:09;13.65;;;5.00;;
80179;SDS011;69505;52.134;5.438;2024-02-15T00:14:36;14.23;;;5.68;;
80179;SDS011;69505;52.134;5.438;2024-02-15T00:17:04;9.40;;;4.72;;
80179;SDS011;69505;52.134;5.438;2024-02-15T00:19:31;13.02;;;4.90;;
80179;SDS011;69505;52.134;5.438;2024-02-15T00:21:58;11.85;;;5.43;;
80179;SDS011;69505;52.134;5.438;2024-02-15T00:24:24;11.20;;;4.57;;
80179;SDS011;69505;52.134;5.438;2024-02-15T00:26:51;11.35;;;4.95;;
80179;SDS011;69505;52.134;5.438;2024-02-15T00:29:18;9.82;;;4.65;;
80179;SDS011;69505;52.134;5.438;2024-02-15T00:31:44;11.05;;;4.97;;
80179;SDS011;69505;52.134;5.438;2024-02-15T00:34:11;8.80;;;4.53;;
80179;SDS011;69505;52.134;5.438;2024-02-15T00:36:41;7.85;;;4.38;;
80179;SDS011;69505;52.134;5.438;2024-02-15T00:39:10;7.10;;;3.83;;
80179;SDS011;69505;52.134;5.438;2024-02-15T00:41:38;14.20;;;4.68;;
80179;SDS011;69505;52.134;5.438;2024-02-15T00:44:08;8.07;;;4.32;;
80179;SDS011;69505;52.134;5.438;2024-02-15T00:46:37;11.02;;;4.82;;
80179;SDS011;69505;52.134;5.438;2024-02-15T00:49:04;9.77;;;4.43;;
80179;SDS011;69505;52.134;5.438;2024-02-15T00:51:32;6.85;;;3.90;;
80179;SDS011;69505;52.134;5.438;2024-02-15T00:54:02;7.22;;;3.88;;
80179;SDS011;69505;52.134;5.438;2024-02-15T00:56:30;7.55;;;4.22;;
80179;SDS011;69505;52.134;5.438;2024-02-15T00:58:59;9.27;;;4.53;;
80179;SDS011;69505;52.134;5.438;2024-02-15T01:01:26;7.57;;;3.60;;
80179;SDS011;69505;52.134;5.438;2024-02-15T01:03:53;9.68;;;4.03;;
80179;SDS011;69505;52.134;5.438;2024-02-15T01:06:20;9.02;;;4.00;;
80179;SDS011;69505;52.134;5.438;2024-02-15T01:08:46;12.20;;;4.03;;
80179;SDS011;69505;52.134;5.438;2024-02-15T01:11:13;7.75;;;3.95;;
80179;SDS011;69505;52.134;5.438;2024-02-15T01:13:40;8.95;;;4.10;;
80179;SDS011;69505;52.134;5.438;2024-02-15T01:16:07;7.85;;;4.03;;
80179;SDS011;69505;52.134;5.438;2024-02-15T01:18:34;8.18;;;3.45;;
80179;SDS011;69505;52.134;5.438;2024-02-15T01:21:02;9.32;;;3.38;;
80179;SDS011;69505;52.134;5.438;2024-02-15T01:23:29;7.65;;;3.78;;
80179;SDS011;69505;52.134;5.438;2024-02-15T01:25:56;11.25;;;4.30;;
80179;SDS011;69505;52.134;5.438;2024-02-15T01:28:24;9.25;;;4.45;;
80179;SDS011;69505;52.134;5.438;2024-02-15T01:30:50;11.68;;;4.43;;
80179;SDS011;69505;52.134;5.438;2024-02-15T01:33:17;9.85;;;5.15;;
80179;SDS011;69505;52.134;5.438;2024-02-15T01:35:44;9.88;;;5.47;;
80179;SDS011;69505;52.134;5.438;2024-02-15T01:38:11;11.52;;;5.30;;
80179;SDS011;69505;52.134;5.438;2024-02-15T01:40:37;9.00;;;5.85;;
80179;SDS011;69505;52.134;5.438;2024-02-15T01:43:04;9.98;;;5.75;;
80179;SDS011;69505;52.134;5.438;2024-02-15T01:45:30;10.75;;;6.80;;
80179;SDS011;69505;52.134;5.438;2024-02-15T01:47:57;14.70;;;7.22;;
80179;SDS011;69505;52.134;5.438;2024-02-15T01:50:24;14.60;;;7.65;;
80179;SDS011;69505;52.134;5.438;2024-02-15T01:52:52;14.27;;;7.97;;
80179;SDS011;69505;52.134;5.438;2024-02-15T01:55:23;15.32;;;7.82;;
80179;SDS011;69505;52.134;5.438;2024-02-15T01:57:50;13.95;;;7.85;;
80179;SDS011;69505;52.134;5.438;2024-02-15T02:00:20;14.55;;;8.75;;
80179;SDS011;69505;52.134;5.438;2024-02-15T02:02:47;15.68;;;8.30;;
80179;SDS011;69505;52.134;5.438;2024-02-15T02:05:14;16.58;;;8.02;;
80179;SDS011;69505;52.134;5.438;2024-02-15T02:07:41;17.38;;;7.82;;
80179;SDS011;69505;52.134;5.438;2024-02-15T02:10:08;14.50;;;8.18;;
80179;SDS011;69505;52.134;5.438;2024-02-15T02:12:37;12.55;;;7.43;;
80179;SDS011;69505;52.134;5.438;2024-02-15T02:15:06;15.80;;;7.68;;
80179;SDS011;69505;52.134;5.438;2024-02-15T02:17:34;16.92;;;7.80;;
80179;SDS011;69505;52.134;5.438;2024-02-15T02:20:02;13.27;;;7.85;;
80179;SDS011;69505;52.134;5.438;2024-02-15T02:22:35;14.50;;;7.68;;
80179;SDS011;69505;52.134;5.438;2024-02-15T02:27:32;12.23;;;7.97;;
80179;SDS011;69505;52.134;5.438;2024-02-15T02:29:59;12.50;;;7.88;;
80179;SDS011;69505;52.134;5.438;2024-02-15T02:32:26;14.85;;;7.45;;
80179;SDS011;69505;52.134;5.438;2024-02-15T02:34:53;16.75;;;7.22;;
80179;SDS011;69505;52.134;5.438;2024-02-15T02:37:24;16.75;;;7.10;;
80179;SDS011;69505;52.134;5.438;2024-02-15T02:39:51;13.13;;;6.95;;
80179;SDS011;69505;52.134;5.438;2024-02-15T02:42:18;11.10;;;6.93;;
80179;SDS011;69505;52.134;5.438;2024-02-15T02:44:44;10.00;;;6.90;;
80179;SDS011;69505;52.134;5.438;2024-02-15T02:47:11;8.95;;;6.35;;
80179;SDS011;69505;52.134;5.438;2024-02-15T02:49:38;10.77;;;6.90;;
80179;SDS011;69505;52.134;5.438;2024-02-15T02:52:05;12.25;;;6.90;;
80179;SDS011;69505;52.134;5.438;2024-02-15T02:54:31;14.88;;;6.65;;
80179;SDS011;69505;52.134;5.438;2024-02-15T02:56:59;12.45;;;6.07;;
80179;SDS011;69505;52.134;5.438;2024-02-15T02:59:26;11.10;;;6.20;;
80179;SDS011;69505;52.134;5.438;2024-02-15T03:01:52;12.25;;;5.47;;
80179;SDS011;69505;52.134;5.438;2024-02-15T03:04:22;11.85;;;5.57;;
80179;SDS011;69505;52.134;5.438;2024-02-15T03:06:49;12.10;;;6.03;;
80179;SDS011;69505;52.134;5.438;2024-02-15T03:09:16;11.45;;;5.75;;
80179;SDS011;69505;52.134;5.438;2024-02-15T03:11:43;10.20;;;5.72;;
80179;SDS011;69505;52.134;5.438;2024-02-15T03:14:10;13.18;;;6.03;;
80179;SDS011;69505;52.134;5.438;2024-02-15T03:16:37;10.18;;;5.28;;
80179;SDS011;69505;52.134;5.438;2024-02-15T03:19:04;15.52;;;6.00;;
80179;SDS011;69505;52.134;5.438;2024-02-15T03:21:31;10.30;;;5.55;;
80179;SDS011;69505;52.134;5.438;2024-02-15T03:23:57;14.32;;;5.53;;
80179;SDS011;69505;52.134;5.438;2024-02-15T03:26:31;11.93;;;5.63;;
80179;SDS011;69505;52.134;5.438;2024-02-15T03:29:05;9.95;;;5.32;;
80179;SDS011;69505;52.134;5.438;2024-02-15T03:31:31;9.82;;;5.55;;
80179;SDS011;69505;52.134;5.438;2024-02-15T03:33:58;11.90;;;5.72;;
80179;SDS011;69505;52.134;5.438;2024-02-15T03:36:25;10.80;;;5.20;;
80179;SDS011;69505;52.134;5.438;2024-02-15T03:38:52;8.15;;;5.25;;
80179;SDS011;69505;52.134;5.438;2024-02-15T03:41:20;8.35;;;4.82;;
80179;SDS011;69505;52.134;5.438;2024-02-15T03:43:47;9.45;;;5.50;;
80179;SDS011;69505;52.134;5.438;2024-02-15T03:46:13;9.52;;;4.72;;
80179;SDS011;69505;52.134;5.438;2024-02-15T03:48:42;12.20;;;5.13;;
80179;SDS011;69505;52.134;5.438;2024-02-15T03:51:18;15.30;;;5.10;;
80179;SDS011;69505;52.134;5.438;2024-02-15T03:53:45;9.68;;;4.75;;
80179;SDS011;69505;52.134;5.438;2024-02-15T03:56:11;9.40;;;4.60;;
80179;SDS011;69505;52.134;5.438;2024-02-15T03:58:38;9.77;;;4.53;;
80179;SDS011;69505;52.134;5.438;2024-02-15T04:01:04;8.20;;;4.57;;
80179;SDS011;69505;52.134;5.438;2024-02-15T04:03:32;7.10;;;4.55;;
80179;SDS011;69505;52.134;5.438;2024-02-15T04:06:00;13.35;;;4.72;;
80179;SDS011;69505;52.134;5.438;2024-02-15T04:08:27;11.32;;;4.93;;
80179;SDS011;69505;52.134;5.438;2024-02-15T04:10:54;8.68;;;4.22;;
80179;SDS011;69505;52.134;5.438;2024-02-15T04:13:23;14.18;;;4.43;;
80179;SDS011;69505;52.134;5.438;2024-02-15T04:15:50;8.20;;;3.72;;
80179;SDS011;69505;52.134;5.438;2024-02-15T04:20:46;10.77;;;3.67;;
80179;SDS011;69505;52.134;5.438;2024-02-15T04:23:12;10.65;;;4.60;;
80179;SDS011;69505;52.134;5.438;2024-02-15T04:25:39;8.55;;;3.75;;
80179;SDS011;69505;52.134;5.438;2024-02-15T04:28:09;8.20;;;3.78;;
80179;SDS011;69505;52.134;5.438;2024-02-15T04:30:36;10.68;;;3.80;;
80179;SDS011;69505;52.134;5.438;2024-02-15T04:33:04;8.18;;;3.97;;
80179;SDS011;69505;52.134;5.438;2024-02-15T04:35:34;11.63;;;4.47;;
80179;SDS011;69505;52.134;5.438;2024-02-15T04:38:01;10.43;;;3.80;;
80179;SDS011;69505;52.134;5.438;2024-02-15T04:40:30;7.05;;;3.97;;
80179;SDS011;69505;52.134;5.438;2024-02-15T04:42:56;9.88;;;3.70;;
80179;SDS011;69505;52.134;5.438;2024-02-15T04:45:24;13.98;;;4.65;;
80179;SDS011;69505;52.134;5.438;2024-02-15T04:47:52;7.20;;;3.58;;
80179;SDS011;69505;52.134;5.438;2024-02-15T04:50:20;9.82;;;3.92;;
80179;SDS011;69505;52.134;5.438;2024-02-15T04:52:47;8.45;;;3.38;;
80179;SDS011;69505;52.134;5.438;2024-02-15T04:55:16;13.57;;;3.78;;
80179;SDS011;69505;52.134;5.438;2024-02-15T04:57:44;13.27;;;3.67;;
80179;SDS011;69505;52.134;5.438;2024-02-15T05:00:11;10.02;;;3.97;;
80179;SDS011;69505;52.134;5.438;2024-02-15T05:05:08;10.30;;;3.15;;
80179;SDS011;69505;52.134;5.438;2024-02-15T05:07:35;7.20;;;3.38;;
80179;SDS011;69505;52.134;5.438;2024-02-15T05:10:06;10.85;;;3.97;;
80179;SDS011;69505;52.134;5.438;2024-02-15T05:12:33;10.43;;;3.80;;
80179;SDS011;69505;52.134;5.438;2024-02-15T05:15:00;9.65;;;3.92;;
80179;SDS011;69505;52.134;5.438;2024-02-15T05:17:27;9.00;;;3.50;;
80179;SDS011;69505;52.134;5.438;2024-02-15T05:19:57;10.43;;;3.75;;
80179;SDS011;69505;52.134;5.438;2024-02-15T05:22:25;12.57;;;3.85;;
80179;SDS011;69505;52.134;5.438;2024-02-15T05:24:55;11.25;;;3.95;;
80179;SDS011;69505;52.134;5.438;2024-02-15T05:27:22;8.00;;;3.90;;
80179;SDS011;69505;52.134;5.438;2024-02-15T05:29:49;12.50;;;3.63;;
80179;SDS011;69505;52.134;5.438;2024-02-15T05:32:19;9.88;;;3.28;;
80179;SDS011;69505;52.134;5.438;2024-02-15T05:34:46;11.00;;;3.67;;
80179;SDS011;69505;52.134;5.438;2024-02-15T05:37:14;8.13;;;3.42;;
80179;SDS011;69505;52.134;5.438;2024-02-15T05:39:42;7.03;;;3.90;;
80179;SDS011;69505;52.134;5.438;2024-02-15T05:42:08;9.50;;;3.60;;
80179;SDS011;69505;52.134;5.438;2024-02-15T05:44:36;11.07;;;4.10;;
80179;SDS011;69505;52.134;5.438;2024-02-15T05:47:03;8.80;;;3.72;;
80179;SDS011;69505;52.134;5.438;2024-02-15T05:49:30;9.00;;;4.00;;
80179;SDS011;69505;52.134;5.438;2024-02-15T05:51:56;9.57;;;4.50;;
80179;SDS011;69505;52.134;5.438;2024-02-15T05:54:23;8.88;;;4.07;;
80179;SDS011;69505;52.134;5.438;2024-02-15T05:56:50;8.85;;;3.83;;
80179;SDS011;69505;52.134;5.438;2024-02-15T06:01:47;8.43;;;3.78;;
80179;SDS011;69505;52.134;5.438;2024-02-15T06:04:16;7.65;;;3.42;;
80179;SDS011;69505;52.134;5.438;2024-02-15T06:06:43;11.45;;;4.32;;
80179;SDS011;69505;52.134;5.438;2024-02-15T06:09:15;10.00;;;3.53;;
80179;SDS011;69505;52.134;5.438;2024-02-15T06:11:41;7.55;;;3.70;;
80179;SDS011;69505;52.134;5.438;2024-02-15T06:14:10;9.02;;;3.63;;
80179;SDS011;69505;52.134;5.438;2024-02-15T06:16:43;9.32;;;3.55;;
80179;SDS011;69505;52.134;5.438;2024-02-15T06:19:13;9.48;;;4.32;;
80179;SDS011;69505;52.134;5.438;2024-02-15T06:21:41;8.00;;;3.58;;
80179;SDS011;69505;52.134;5.438;2024-02-15T06:24:08;8.57;;;4.03;;
80179;SDS011;69505;52.134;5.438;2024-02-15T06:26:35;5.63;;;3.55;;
80179;SDS011;69505;52.134;5.438;2024-02-15T06:29:02;7.68;;;3.72;;
80179;SDS011;69505;52.134;5.438;2024-02-15T06:31:47;7.25;;;3.78;;
80179;SDS011;69505;52.134;5.438;2024-02-15T06:34:42;7.43;;;3.97;;
80179;SDS011;69505;52.134;5.438;2024-02-15T06:37:41;7.32;;;3.55;;
80179;SDS011;69505;52.134;5.438;2024-02-15T06:40:26;9.15;;;4.20;;
80179;SDS011;69505;52.134;5.438;2024-02-15T06:42:53;10.02;;;4.00;;
80179;SDS011;69505;52.134;5.438;2024-02-15T06:45:20;11.57;;;4.20;;
80179;SDS011;69505;52.134;5.438;2024-02-15T06:47:46;10.57;;;3.85;;
80179;SDS011;69505;52.134;5.438;2024-02-15T06:50:13;7.95;;;4.43;;
80179;SDS011;69505;52.134;5.438;2024-02-15T06:52:40;10.00;;;5.05;;
80179;SDS011;69505;52.134;5.438;2024-02-15T06:55:07;12.07;;;4.47;;
80179;SDS011;69505;52.134;5.438;2024-02-15T06:57:35;7.95;;;4.40;;
80179;SDS011;69505;52.134;5.438;2024-02-15T07:00:06;12.90;;;4.45;;
80179;SDS011;69505;52.134;5.438;2024-02-15T07:02:36;10.30;;;4.53;;
80179;SDS011;69505;52.134;5.438;2024-02-15T07:05:02;7.70;;;4.57;;
80179;SDS011;69505;52.134;5.438;2024-02-15T07:07:30;6.22;;;4.10;;
80179;SDS011;69505;52.134;5.438;2024-02-15T07:09:57;11.98;;;4.93;;
80179;SDS011;69505;52.134;5.438;2024-02-15T07:12:24;7.68;;;4.60;;
80179;SDS011;69505;52.134;5.438;2024-02-15T07:14:51;8.05;;;4.53;;
80179;SDS011;69505;52.134;5.438;2024-02-15T07:17:17;10.95;;;4.68;;
80179;SDS011;69505;52.134;5.438;2024-02-15T07:19:44;7.55;;;4.18;;
80179;SDS011;69505;52.134;5.438;2024-02-15T07:22:11;7.00;;;4.53;;
80179;SDS011;69505;52.134;5.438;2024-02-15T07:24:38;6.15;;;4.38;;
80179;SDS011;69505;52.134;5.438;2024-02-15T07:27:05;6.63;;;4.10;;
80179;SDS011;69505;52.134;5.438;2024-02-15T07:29:32;6.53;;;4.55;;
80179;SDS011;69505;52.134;5.438;2024-02-15T07:32:01;6.90;;;3.95;;
80179;SDS011;69505;52.134;5.438;2024-02-15T07:34:30;8.80;;;4.28;;
80179;SDS011;69505;52.134;5.438;2024-02-15T07:37:01;5.68;;;3.83;;
80179;SDS011;69505;52.134;5.438;2024-02-15T07:39:28;6.22;;;4.18;;
80179;SDS011;69505;52.134;5.438;2024-02-15T07:41:55;9.48;;;3.90;;
80179;SDS011;69505;52.134;5.438;2024-02-15T07:46:51;10.52;;;3.83;;
80179;SDS011;69505;52.134;5.438;2024-02-15T07:49:17;7.13;;;3.65;;
80179;SDS011;69505;52.134;5.438;2024-02-15T07:51:44;4.18;;;3.05;;
80179;SDS011;69505;52.134;5.438;2024-02-15T07:54:18;8.35;;;3.75;;
80179;SDS011;69505;52.134;5.438;2024-02-15T07:56:47;5.40;;;3.25;;
80179;SDS011;69505;52.134;5.438;2024-02-15T07:59:15;7.60;;;3.58;;
80179;SDS011;69505;52.134;5.438;2024-02-15T08:01:48;4.93;;;3.22;;
80179;SDS011;69505;52.134;5.438;2024-02-15T08:04:16;8.20;;;3.17;;
80179;SDS011;69505;52.134;5.438;2024-02-15T08:06:44;4.85;;;2.92;;
80179;SDS011;69505;52.134;5.438;2024-02-15T08:09:11;4.32;;;2.80;;
80179;SDS011;69505;52.134;5.438;2024-02-15T08:11:40;6.57;;;2.47;;
80179;SDS011;69505;52.134;5.438;2024-02-15T08:14:07;3.30;;;2.55;;
80179;SDS011;69505;52.134;5.438;2024-02-15T08:16:39;3.40;;;2.25;;
80179;SDS011;69505;52.134;5.438;2024-02-15T08:19:09;3.03;;;2.30;;
80179;SDS011;69505;52.134;5.438;2024-02-15T08:21:37;3.88;;;2.10;;
80179;SDS011;69505;52.134;5.438;2024-02-15T08:24:05;3.40;;;2.30;;
80179;SDS011;69505;52.134;5.438;2024-02-15T08:26:33;3.78;;;2.22;;
80179;SDS011;69505;52.134;5.438;2024-02-15T08:29:01;4.00;;;2.33;;
80179;SDS011;69505;52.134;5.438;2024-02-15T08:31:29;3.35;;;2.45;;
80179;SDS011;69505;52.134;5.438;2024-02-15T08:34:00;5.72;;;2.60;;
80179;SDS011;69505;52.134;5.438;2024-02-15T08:36:36;3.42;;;2.50;;
80179;SDS011;69505;52.134;5.438;2024-02-15T08:39:03;3.15;;;1.98;;
80179;SDS011;69505;52.134;5.438;2024-02-15T08:41:31;6.65;;;1.75;;
80179;SDS011;69505;52.134;5.438;2024-02-15T08:43:58;3.35;;;2.08;;
80179;SDS011;69505;52.134;5.438;2024-02-15T08:46:26;3.45;;;1.73;;
80179;SDS011;69505;52.134;5.438;2024-02-15T08:48:53;3.03;;;1.63;;
80179;SDS011;69505;52.134;5.438;2024-02-15T08:51:20;3.10;;;1.70;;
80179;SDS011;69505;52.134;5.438;2024-02-15T08:53:50;3.20;;;1.23;;
80179;SDS011;69505;52.134;5.438;2024-02-15T08:56:17;3.60;;;1.63;;
80179;SDS011;69505;52.134;5.438;2024-02-15T08:58:44;4.57;;;1.55;;
80179;SDS011;69505;52.134;5.438;2024-02-15T09:01:11;3.00;;;1.27;;
80179;SDS011;69505;52.134;5.438;2024-02-15T09:03:39;3.92;;;1.63;;
80179;SDS011;69505;52.134;5.438;2024-02-15T09:06:06;3.78;;;1.63;;
80179;SDS011;69505;52.134;5.438;2024-02-15T09:08:34;2.58;;;1.17;;
80179;SDS011;69505;52.134;5.438;2024-02-15T09:11:00;2.13;;;1.25;;
80179;SDS011;69505;52.134;5.438;2024-02-15T09:13:29;3.03;;;1.70;;
80179;SDS011;69505;52.134;5.438;2024-02-15T09:15:55;2.78;;;1.30;;
80179;SDS011;69505;52.134;5.438;2024-02-15T09:18:22;2.35;;;1.33;;
80179;SDS011;69505;52.134;5.438;2024-02-15T09:20:49;2.78;;;1.30;;
80179;SDS011;69505;52.134;5.438;2024-02-15T09:23:21;5.05;;;1.13;;
80179;SDS011;69505;52.134;5.438;2024-02-15T09:25:49;2.22;;;1.20;;
80179;SDS011;69505;52.134;5.438;2024-02-15T09:28:18;2.58;;;1.00;;
80179;SDS011;69505;52.134;5.438;2024-02-15T09:30:48;3.28;;;1.52;;
80179;SDS011;69505;52.134;5.438;2024-02-15T09:33:20;1.98;;;1.23;;
80179;SDS011;69505;52.134;5.438;2024-02-15T09:35:47;2.90;;;1.20;;
80179;SDS011;69505;52.134;5.438;2024-02-15T09:38:14;2.58;;;1.30;;
80179;SDS011;69505;52.134;5.438;2024-02-15T09:40:43;3.10;;;1.50;;
80179;SDS011;69505;52.134;5.438;2024-02-15T09:43:10;4.47;;;1.90;;
80179;SDS011;69505;52.134;5.438;2024-02-15T09:45:39;5.05;;;1.90;;
80179;SDS011;69505;52.134;5.438;2024-02-15T09:48:06;4.10;;;1.52;;
80179;SDS011;69505;52.134;5.438;2024-02-15T09:50:45;7.10;;;1.73;;
80179;SDS011;69505;52.134;5.438;2024-02-15T09:53:13;2.60;;;1.67;;
80179;SDS011;69505;52.134;5.438;2024-02-15T09:55:41;6.72;;;1.90;;
80179;SDS011;69505;52.134;5.438;2024-02-15T09:58:09;4.47;;;1.80;;
80179;SDS011;69505;52.134;5.438;2024-02-15T10:00:38;3.63;;;1.52;;
80179;SDS011;69505;52.134;5.438;2024-02-15T10:03:05;4.60;;;1.70;;
80179;SDS011;69505;52.134;5.438;2024-02-15T10:05:33;6.18;;;1.73;;
80179;SDS011;69505;52.134;5.438;2024-02-15T10:08:01;3.75;;;1.63;;
80179;SDS011;69505;52.134;5.438;2024-02-15T10:10:29;3.33;;;1.60;;
80179;SDS011;69505;52.134;5.438;2024-02-15T10:12:55;4.22;;;1.70;;
80179;SDS011;69505;52.134;5.438;2024-02-15T10:15:33;4.38;;;1.48;;
80179;SDS011;69505;52.134;5.438;2024-02-15T10:18:02;4.25;;;1.83;;
80179;SDS011;69505;52.134;5.438;2024-02-15T10:20:31;5.43;;;1.77;;
80179;SDS011;69505;52.134;5.438;2024-02-15T10:25:35;4.53;;;1.88;;
80179;SDS011;69505;52.134;5.438;2024-02-15T10:28:06;3.95;;;2.03;;
80179;SDS011;69505;52.134;5.438;2024-02-15T10:30:38;4.50;;;1.80;;
80179;SDS011;69505;52.134;5.438;2024-02-15T10:35:34;5.40;;;2.20;;
80179;SDS011;69505;52.134;5.438;2024-02-15T10:38:08;7.30;;;2.10;;
80179;SDS011;69505;52.134;5.438;2024-02-15T10:40:36;5.50;;;1.92;;
80179;SDS011;69505;52.134;5.438;2024-02-15T10:43:04;5.28;;;1.90;;
80179;SDS011;69505;52.134;5.438;2024-02-15T10:45:35;4.00;;;1.90;;
80179;SDS011;69505;52.134;5.438;2024-02-15T10:48:12;3.58;;;1.90;;
80179;SDS011;69505;52.134;5.438;2024-02-15T10:50:40;5.18;;;2.05;;
80179;SDS011;69505;52.134;5.438;2024-02-15T10:53:27;6.72;;;2.00;;
80179;SDS011;69505;52.134;5.438;2024-02-15T10:58:40;3.97;;;1.80;;
80179;SDS011;69505;52.134;5.438;2024-02-15T11:01:12;5.90;;;2.30;;
80179;SDS011;69505;52.134;5.438;2024-02-15T11:03:48;6.07;;;1.98;;
80179;SDS011;69505;52.134;5.438;2024-02-15T11:06:19;5.75;;;2.30;;
80179;SDS011;69505;52.134;5.438;2024-02-15T11:08:48;5.57;;;2.38;;
80179;SDS011;69505;52.134;5.438;2024-02-15T11:11:15;4.07;;;1.85;;
80179;SDS011;69505;52.134;5.438;2024-02-15T11:13:42;4.60;;;2.00;;
80179;SDS011;69505;52.134;5.438;2024-02-15T11:16:09;7.70;;;2.60;;
80179;SDS011;69505;52.134;5.438;2024-02-15T11:18:42;7.45;;;2.38;;
80179;SDS011;69505;52.134;5.438;2024-02-15T11:21:18;5.68;;;2.38;;
80179;SDS011;69505;52.134;5.438;2024-02-15T11:24:35;6.78;;;2.50;;
80179;SDS011;69505;52.134;5.438;2024-02-15T11:27:03;5.80;;;2.30;;
80179;SDS011;69505;52.134;5.438;2024-02-15T11:43:07;6.22;;;3.10;;
80179;SDS011;69505;52.134;5.438;2024-02-15T11:45:35;5.80;;;3.38;;
80179;SDS011;69505;52.134;5.438;2024-02-15T11:48:08;5.85;;;2.88;;
80179;SDS011;69505;52.134;5.438;2024-02-15T11:50:39;6.75;;;3.38;;
80179;SDS011;69505;52.134;5.438;2024-02-15T11:53:07;6.53;;;2.72;;
80179;SDS011;69505;52.134;5.438;2024-02-15T11:55:39;6.78;;;3.28;;
80179;SDS011;69505;52.134;5.438;2024-02-15T11:58:07;7.60;;;3.05;;
80179;SDS011;69505;52.134;5.438;2024-02-15T12:00:38;7.07;;;3.15;;
80179;SDS011;69505;52.134;5.438;2024-02-15T12:03:24;7.47;;;3.00;;
80179;SDS011;69505;52.134;5.438;2024-02-15T12:06:27;8.88;;;3.22;;
80179;SDS011;69505;52.134;5.438;2024-02-15T12:09:13;6.15;;;3.05;;
80179;SDS011;69505;52.134;5.438;2024-02-15T12:12:04;6.03;;;2.50;;
80179;SDS011;69505;52.134;5.438;2024-02-15T12:14:49;5.10;;;2.97;;
80179;SDS011;69505;52.134;5.438;2024-02-15T12:17:34;6.15;;;2.58;;
80179;SDS011;69505;52.134;5.438;2024-02-15T12:20:20;5.28;;;2.97;;
80179;SDS011;69505;52.134;5.438;2024-02-15T12:22:51;5.65;;;2.72;;
80179;SDS011;69505;52.134;5.438;2024-02-15T12:25:19;5.38;;;2.75;;
80179;SDS011;69505;52.134;5.438;2024-02-15T12:27:58;6.65;;;3.05;;
80179;SDS011;69505;52.134;5.438;2024-02-15T12:30:26;6.63;;;2.50;;
80179;SDS011;69505;52.134;5.438;2024-02-15T12:33:08;4.97;;;2.63;;
80179;SDS011;69505;52.134;5.438;2024-02-15T12:35:37;6.40;;;3.03;;
80179;SDS011;69505;52.134;5.438;2024-02-15T12:38:04;8.18;;;2.60;;
80179;SDS011;69505;52.134;5.438;2024-02-15T12:40:36;8.30;;;2.72;;
80179;SDS011;69505;52.134;5.438;2024-02-15T12:43:07;9.20;;;2.70;;
80179;SDS011;69505;52.134;5.438;2024-02-15T12:48:03;8.70;;;2.47;;
80179;SDS011;69505;52.134;5.438;2024-02-15T12:50:33;7.25;;;2.50;;
80179;SDS011;69505;52.134;5.438;2024-02-15T12:53:00;5.32;;;2.38;;
80179;SDS011;69505;52.134;5.438;2024-02-15T12:55:33;5.82;;;2.40;;
80179;SDS011;69505;52.134;5.438;2024-02-15T12:58:02;4.72;;;1.92;;
80179;SDS011;69505;52.134;5.438;2024-02-15T13:00:30;5.80;;;2.50;;
80179;SDS011;69505;52.134;5.438;2024-02-15T13:03:01;3.67;;;2.08;;
80179;SDS011;69505;52.134;5.438;2024-02-15T13:05:30;4.70;;;2.20;;
80179;SDS011;69505;52.134;5.438;2024-02-15T13:07:58;4.70;;;1.83;;
80179;SDS011;69505;52.134;5.438;2024-02-15T13:10:25;5.53;;;1.90;;
80179;SDS011;69505;52.134;5.438;2024-02-15T13:12:52;4.20;;;1.90;;
80179;SDS011;69505;52.134;5.438;2024-02-15T13:15:19;5.90;;;2.08;;
80179;SDS011;69505;52.134;5.438;2024-02-15T13:17:48;5.35;;;1.70;;
80179;SDS011;69505;52.134;5.438;2024-02-15T13:20:15;6.80;;;2.63;;
80179;SDS011;69505;52.134;5.438;2024-02-15T13:22:42;4.65;;;1.92;;
80179;SDS011;69505;52.134;5.438;2024-02-15T13:25:10;6.57;;;1.80;;
80179;SDS011;69505;52.134;5.438;2024-02-15T13:27:37;6.18;;;1.73;;
80179;SDS011;69505;52.134;5.438;2024-02-15T13:30:05;5.78;;;1.83;;
80179;SDS011;69505;52.134;5.438;2024-02-15T13:32:36;4.60;;;1.73;;
80179;SDS011;69505;52.134;5.438;2024-02-15T13:35:08;8.18;;;2.60;;
80179;SDS011;69505;52.134;5.438;2024-02-15T13:37:47;5.43;;;1.80;;
80179;SDS011;69505;52.134;5.438;2024-02-15T13:40:21;6.25;;;1.85;;
80179;SDS011;69505;52.134;5.438;2024-02-15T13:42:49;6.13;;;1.60;;
80179;SDS011;69505;52.134;5.438;2024-02-15T13:45:22;4.93;;;2.30;;
80179;SDS011;69505;52.134;5.438;2024-02-15T13:47:50;4.93;;;1.60;;
80179;SDS011;69505;52.134;5.438;2024-02-15T13:50:23;5.03;;;1.88;;
80179;SDS011;69505;52.134;5.438;2024-02-15T13:52:50;6.00;;;1.73;;
80179;SDS011;69505;52.134;5.438;2024-02-15T13:55:17;3.80;;;1.52;;
80179;SDS011;69505;52.134;5.438;2024-02-15T13:57:45;6.75;;;1.90;;
80179;SDS011;69505;52.134;5.438;2024-02-15T14:00:16;4.50;;;1.58;;
80179;SDS011;69505;52.134;5.438;2024-02-15T14:02:53;4.90;;;1.88;;
80179;SDS011;69505;52.134;5.438;2024-02-15T14:05:22;5.05;;;1.70;;
80179;SDS011;69505;52.134;5.438;2024-02-15T14:07:54;7.53;;;1.80;;
80179;SDS011;69505;52.134;5.438;2024-02-15T14:10:25;7.07;;;2.00;;
80179;SDS011;69505;52.134;5.438;2024-02-15T14:12:55;7.63;;;1.98;;
80179;SDS011;69505;52.134;5.438;2024-02-15T14:15:24;4.03;;;1.70;;
80179;SDS011;69505;52.134;5.438;2024-02-15T14:17:52;4.90;;;1.80;;
80179;SDS011;69505;52.134;5.438;2024-02-15T14:20:19;4.63;;;1.85;;
80179;SDS011;69505;52.134;5.438;2024-02-15T14:25:26;6.15;;;1.83;;
80179;SDS011;69505;52.134;5.438;2024-02-15T14:27:54;4.88;;;1.75;;
80179;SDS011;69505;52.134;5.438;2024-02-15T14:30:21;6.35;;;2.00;;
80179;SDS011;69505;52.134;5.438;2024-02-15T14:33:06;5.38;;;1.88;;
80179;SDS011;69505;52.134;5.438;2024-02-15T14:35:45;6.28;;;1.70;;
80179;SDS011;69505;52.134;5.438;2024-02-15T14:38:12;4.85;;;2.10;;
80179;SDS011;69505;52.134;5.438;2024-02-15T14:40:40;4.78;;;1.55;;
80179;SDS011;69505;52.134;5.438;2024-02-15T14:43:28;4.57;;;1.77;;
80179;SDS011;69505;52.134;5.438;2024-02-15T14:45:55;5.22;;;1.98;;
80179;SDS011;69505;52.134;5.438;2024-02-15T14:48:24;3.67;;;1.73;;
80179;SDS011;69505;52.134;5.438;2024-02-15T14:50:51;4.60;;;1.95;;
80179;SDS011;69505;52.134;5.438;2024-02-15T14:53:19;5.05;;;1.50;;
80179;SDS011;69505;52.134;5.438;2024-02-15T14:55:46;6.40;;;1.83;;
80179;SDS011;69505;52.134;5.438;2024-02-15T14:58:13;5.35;;;1.88;;
80179;SDS011;69505;52.134;5.438;2024-02-15T15:00:43;7.13;;;1.75;;
80179;SDS011;69505;52.134;5.438;2024-02-15T15:03:14;6.47;;;1.88;;
80179;SDS011;69505;52.134;5.438;2024-02-15T15:05:43;3.70;;;1.85;;
80179;SDS011;69505;52.134;5.438;2024-02-15T15:08:29;5.05;;;1.52;;
80179;SDS011;69505;52.134;5.438;2024-02-15T15:11:15;5.28;;;1.90;;
80179;SDS011;69505;52.134;5.438;2024-02-15T15:14:00;6.75;;;2.60;;
80179;SDS011;69505;52.134;5.438;2024-02-15T15:16:31;4.57;;;1.83;;
80179;SDS011;69505;52.134;5.438;2024-02-15T15:18:57;4.40;;;1.90;;
80179;SDS011;69505;52.134;5.438;2024-02-15T15:21:24;4.63;;;1.60;;
80179;SDS011;69505;52.134;5.438;2024-02-15T15:23:54;5.55;;;1.73;;
80179;SDS011;69505;52.134;5.438;2024-02-15T15:26:21;5.25;;;1.73;;
80179;SDS011;69505;52.134;5.438;2024-02-15T15:28:48;4.53;;;2.40;;
80179;SDS011;69505;52.134;5.438;2024-02-15T15:31:16;4.00;;;1.80;;
80179;SDS011;69505;52.134;5.438;2024-02-15T15:33:43;5.50;;;1.88;;
80179;SDS011;69505;52.134;5.438;2024-02-15T15:36:11;5.28;;;2.00;;